Forside
METAR-TAF:

METAR-TAF

Lufthavne :

Shawano, Wisconsin, USA

Breddekreds: 44-47-14N, længdekreds: 088-33-36W, højde: 248 m

Aktuelle vejr

Denne rapport blev lavet for 7 minutter siden, kl. 23:55 UTC
Vind stille
Temperatur 22°C
Fugtighed 60%
Tryk 1020 hPa
Sigt: 16.1 km
Brudte skyer i en højde af 6500 ft
Overskyet i en højde af 9000 ft

METAR: KEZS 012355Z AUTO 00000KT 10SM BKN065 OVC090 22/14 A3012 RMK AO2 T02190135 10244 20219

Tid: 19:02 (00:02 UTC)


TAF: fraværende

Vejrobservationer og prognoser fra mere end 4000 lufthavne (METAR og TAF).

De gule og røde prikker repræsenterer de meteorologiske stationer.

Flyt musen over at se navnet på stationen.

Så klik over at se vejr observationer og prognoser.

At skifte det kort: Klik på de grønne knapper med et sort kors for at zoome ind; på den grønne knap med en bindestreg for at zoome ud; eller på de grønne pile for tilstødende kort.


METAR-TAF: